createdAt,value
2018-02-03T00:00:07.850Z,14.12
2018-02-03T00:02:35.439Z,14.11
2018-02-03T00:05:03.048Z,14.10
2018-02-03T00:07:30.594Z,14.08
2018-02-03T00:09:58.218Z,14.07
2018-02-03T00:12:25.754Z,14.06
2018-02-03T00:14:53.440Z,14.06
2018-02-03T00:17:21.013Z,14.05
2018-02-03T00:19:48.627Z,14.00
2018-02-03T00:22:16.173Z,14.01
2018-02-03T00:24:43.746Z,14.01
2018-02-03T00:27:11.323Z,14.00
2018-02-03T00:29:38.894Z,13.99
2018-02-03T00:32:06.470Z,13.98
2018-02-03T00:34:34.015Z,13.92
2018-02-03T00:37:01.602Z,13.94
2018-02-03T00:39:29.138Z,13.94
2018-02-03T00:41:56.718Z,13.93
2018-02-03T00:44:24.990Z,13.92
2018-02-03T00:46:52.534Z,13.92
2018-02-03T00:49:20.122Z,13.90
2018-02-03T00:51:47.654Z,13.87
2018-02-03T00:54:15.223Z,13.86
2018-02-03T00:56:42.806Z,13.84
2018-02-03T00:59:11.036Z,13.85
2018-02-03T01:01:39.559Z,13.85
2018-02-03T01:04:07.089Z,13.86
2018-02-03T01:06:34.670Z,13.84
2018-02-03T01:09:02.242Z,13.83
2018-02-03T01:11:29.823Z,13.83
2018-02-03T01:13:57.365Z,13.83
2018-02-03T01:16:24.954Z,13.82
2018-02-03T01:18:52.503Z,13.81
2018-02-03T01:21:20.038Z,13.80
2018-02-03T01:23:47.617Z,13.81
2018-02-03T01:26:15.205Z,13.80
2018-02-03T01:28:42.815Z,13.78
2018-02-03T01:31:10.392Z,13.77
2018-02-03T01:33:37.975Z,13.76
2018-02-03T01:36:05.670Z,13.72
2018-02-03T01:38:33.239Z,13.71
2018-02-03T01:41:00.805Z,13.71
2018-02-03T01:43:28.382Z,13.70
2018-02-03T01:45:55.983Z,13.68
2018-02-03T01:48:23.516Z,13.69
2018-02-03T01:50:51.051Z,13.67
2018-02-03T01:53:18.634Z,13.65
2018-02-03T01:55:46.178Z,13.63
2018-02-03T01:58:13.766Z,13.62
2018-02-03T02:00:41.366Z,13.62
2018-02-03T02:03:08.911Z,13.61
2018-02-03T02:05:36.502Z,13.61
2018-02-03T02:08:04.051Z,13.61
2018-02-03T02:10:31.651Z,13.60
2018-02-03T02:12:59.238Z,13.59
2018-02-03T02:15:26.781Z,13.59
2018-02-03T02:17:54.358Z,13.57
2018-02-03T02:20:21.925Z,13.58
2018-02-03T02:22:49.567Z,13.56
2018-02-03T02:25:17.105Z,13.56
2018-02-03T02:27:44.681Z,13.55
2018-02-03T02:30:12.234Z,13.54
2018-02-03T02:32:39.821Z,13.52
2018-02-03T02:35:07.364Z,13.51
2018-02-03T02:37:34.903Z,13.51
2018-02-03T02:40:02.495Z,13.51
2018-02-03T02:42:30.094Z,13.50
2018-02-03T02:44:57.625Z,13.51
2018-02-03T02:47:25.206Z,13.50
2018-02-03T02:49:52.783Z,13.51
2018-02-03T02:52:21.247Z,13.51
2018-02-03T02:54:48.791Z,13.51
2018-02-03T02:57:16.326Z,13.52
2018-02-03T02:59:43.918Z,13.51
2018-02-03T03:02:11.489Z,13.52
2018-02-03T03:04:39.037Z,13.51
2018-02-03T03:07:06.675Z,13.48
2018-02-03T03:09:34.215Z,13.48
2018-02-03T03:12:01.797Z,13.48
2018-02-03T03:14:29.330Z,13.47
2018-02-03T03:16:56.916Z,13.46
2018-02-03T03:19:24.507Z,13.46
2018-02-03T03:21:52.051Z,13.45
2018-02-03T03:24:19.589Z,13.44
2018-02-03T03:26:47.223Z,13.44
2018-02-03T03:29:14.798Z,13.43
2018-02-03T03:31:42.334Z,13.44
2018-02-03T03:34:09.979Z,13.44
2018-02-03T03:36:37.548Z,13.43
2018-02-03T03:39:05.218Z,13.42
2018-02-03T03:41:32.753Z,13.42
2018-02-03T03:44:00.326Z,13.42
2018-02-03T03:46:27.930Z,13.41
2018-02-03T03:48:55.566Z,13.40
2018-02-03T03:51:23.307Z,13.41
2018-02-03T03:53:50.882Z,13.39
2018-02-03T03:56:18.422Z,13.39
2018-02-03T03:58:45.997Z,13.39
2018-02-03T04:01:13.530Z,13.37
2018-02-03T04:03:41.097Z,13.38
2018-02-03T04:06:08.625Z,13.36
2018-02-03T04:08:36.235Z,13.33
2018-02-03T04:11:03.778Z,13.31
2018-02-03T04:13:31.398Z,13.33
2018-02-03T04:15:59.035Z,13.33
2018-02-03T04:18:26.610Z,13.33
2018-02-03T04:20:54.164Z,13.32
2018-02-03T04:23:21.721Z,13.32
2018-02-03T04:25:49.290Z,13.28
2018-02-03T04:28:16.831Z,13.28
2018-02-03T04:30:44.434Z,13.28
2018-02-03T04:33:11.965Z,13.27
2018-02-03T04:35:39.537Z,13.27
2018-02-03T04:38:07.068Z,13.26
2018-02-03T04:40:34.655Z,13.26
2018-02-03T04:43:02.296Z,13.27
2018-02-03T04:45:29.895Z,13.26
2018-02-03T04:47:57.465Z,13.27
2018-02-03T04:50:25.063Z,13.27
2018-02-03T04:52:52.674Z,13.27
2018-02-03T04:55:20.220Z,13.27
2018-02-03T04:57:48.129Z,13.27
2018-02-03T05:00:15.753Z,13.27
2018-02-03T05:02:43.346Z,13.27
2018-02-03T05:05:10.928Z,13.27
2018-02-03T05:07:38.469Z,13.28
2018-02-03T05:10:06.041Z,13.27
2018-02-03T05:12:33.580Z,13.26
2018-02-03T05:15:02.022Z,13.26
2018-02-03T05:17:29.553Z,13.25
2018-02-03T05:19:57.086Z,13.24
2018-02-03T05:22:24.667Z,13.26
2018-02-03T05:24:52.311Z,13.25
2018-02-03T05:27:19.883Z,13.24
2018-02-03T05:29:47.454Z,13.24
2018-02-03T05:32:14.999Z,13.23
2018-02-03T05:34:43.449Z,13.23
2018-02-03T05:37:11.032Z,13.20
2018-02-03T05:39:38.593Z,13.22
2018-02-03T05:42:06.171Z,13.22
2018-02-03T05:44:34.257Z,13.21
2018-02-03T05:47:01.870Z,13.20
2018-02-03T05:49:29.471Z,13.19
2018-02-03T05:51:57.021Z,13.21
2018-02-03T05:54:24.663Z,13.21
2018-02-03T05:56:52.262Z,13.20
2018-02-03T05:59:19.846Z,13.22
2018-02-03T06:01:47.451Z,13.24
2018-02-03T06:04:14.994Z,13.23
2018-02-03T06:06:42.590Z,13.23
2018-02-03T06:09:10.195Z,13.24
2018-02-03T06:11:37.730Z,13.21
2018-02-03T06:14:05.323Z,13.23
2018-02-03T06:16:32.911Z,13.24
2018-02-03T06:19:00.463Z,13.23
2018-02-03T06:21:28.047Z,13.26
2018-02-03T06:23:55.573Z,13.38
2018-02-03T06:26:23.175Z,13.59
2018-02-03T06:28:50.709Z,13.62
2018-02-03T06:31:18.455Z,13.56
2018-02-03T06:33:46.136Z,13.48
2018-02-03T06:36:13.705Z,13.45
2018-02-03T06:38:41.243Z,13.44
2018-02-03T06:41:08.827Z,13.43
2018-02-03T06:43:36.375Z,13.42
2018-02-03T06:46:03.968Z,13.41
2018-02-03T06:48:31.574Z,13.41
2018-02-03T06:50:59.219Z,13.42
2018-02-03T06:53:26.766Z,13.42
2018-02-03T06:55:54.467Z,13.43
2018-02-03T06:58:21.990Z,13.46
2018-02-03T07:00:49.627Z,13.48
2018-02-03T07:03:19.195Z,13.50
2018-02-03T07:05:46.770Z,13.52
2018-02-03T07:08:14.337Z,13.55
2018-02-03T07:10:41.910Z,13.55
2018-02-03T07:13:10.278Z,13.56
2018-02-03T07:15:37.821Z,13.58
2018-02-03T07:18:05.549Z,13.60
2018-02-03T07:20:33.168Z,13.61
2018-02-03T07:23:01.311Z,13.61
2018-02-03T07:25:28.888Z,13.62
2018-02-03T07:27:56.916Z,13.63
2018-02-03T07:30:24.579Z,13.62
2018-02-03T07:32:53.329Z,13.61
2018-02-03T07:35:22.119Z,13.63
2018-02-03T07:37:49.658Z,13.60
2018-02-03T07:40:17.198Z,13.59
2018-02-03T07:42:44.783Z,13.59
2018-02-03T07:45:12.487Z,13.57
2018-02-03T07:47:40.090Z,13.56
2018-02-03T07:50:07.621Z,13.57
2018-02-03T07:52:35.198Z,13.59
2018-02-03T07:55:02.737Z,13.59
2018-02-03T07:57:30.385Z,13.60
2018-02-03T07:59:58.043Z,13.62
2018-02-03T08:02:26.347Z,13.66
2018-02-03T08:04:53.947Z,13.68
2018-02-03T08:07:21.491Z,13.73
2018-02-03T08:09:49.075Z,13.77
2018-02-03T08:12:16.680Z,13.82
2018-02-03T08:14:44.289Z,13.87
2018-02-03T08:17:12.363Z,13.91
2018-02-03T08:19:39.933Z,13.96
2018-02-03T08:22:08.346Z,13.99
2018-02-03T08:24:35.956Z,14.05
2018-02-03T08:27:04.326Z,14.11
2018-02-03T08:29:31.872Z,14.19
2018-02-03T08:31:59.582Z,14.28
2018-02-03T08:34:27.169Z,14.38
2018-02-03T08:36:54.701Z,14.47
2018-02-03T08:39:22.382Z,14.52
2018-02-03T08:41:49.923Z,14.55
2018-02-03T08:44:17.498Z,14.60
2018-02-03T08:46:45.139Z,14.62
2018-02-03T08:49:12.687Z,14.63
2018-02-03T08:51:40.268Z,14.64
2018-02-03T08:54:07.866Z,14.67
2018-02-03T08:56:35.524Z,14.69
2018-02-03T08:59:04.923Z,14.70
2018-02-03T09:01:32.459Z,14.71
2018-02-03T09:03:59.999Z,14.72
2018-02-03T09:06:27.571Z,14.72
2018-02-03T09:08:55.106Z,14.71
2018-02-03T09:11:22.686Z,14.70
2018-02-03T09:13:50.292Z,14.69
2018-02-03T09:16:17.934Z,14.67
2018-02-03T09:18:45.587Z,14.67
2018-02-03T09:21:13.186Z,14.68
2018-02-03T09:23:40.781Z,14.68
2018-02-03T09:26:08.309Z,14.68
2018-02-03T09:28:35.855Z,14.68
2018-02-03T09:31:03.444Z,14.69
2018-02-03T09:33:30.991Z,14.72
2018-02-03T09:35:58.566Z,14.80
2018-02-03T09:38:26.111Z,14.87
2018-02-03T09:40:54.490Z,14.95
2018-02-03T09:43:22.039Z,15.03
2018-02-03T09:45:50.493Z,15.10
2018-02-03T09:48:18.069Z,15.18
2018-02-03T09:50:46.612Z,15.29
2018-02-03T09:53:14.166Z,15.40
2018-02-03T09:55:41.771Z,15.54
2018-02-03T09:58:09.452Z,15.68
2018-02-03T10:00:37.059Z,15.81
2018-02-03T10:03:04.603Z,15.93
2018-02-03T10:05:33.224Z,16.06
2018-02-03T10:08:00.764Z,16.15
2018-02-03T10:10:28.419Z,16.23
2018-02-03T10:12:56.063Z,16.30
2018-02-03T10:15:23.601Z,16.38
2018-02-03T10:17:51.199Z,16.45
2018-02-03T10:20:18.735Z,16.54
2018-02-03T10:22:46.311Z,16.64
2018-02-03T10:25:14.574Z,16.71
2018-02-03T10:27:42.150Z,16.77
2018-02-03T10:30:09.695Z,16.83
2018-02-03T10:32:37.356Z,16.85
2018-02-03T10:35:05.015Z,16.87
2018-02-03T10:37:32.550Z,16.91
2018-02-03T10:40:01.007Z,16.93
2018-02-03T10:42:28.607Z,16.94
2018-02-03T10:44:56.181Z,16.96
2018-02-03T10:47:23.718Z,17.00
2018-02-03T10:49:51.297Z,17.03
2018-02-03T10:52:18.829Z,17.08
2018-02-03T10:54:46.393Z,17.09
2018-02-03T10:57:14.069Z,17.13
2018-02-03T10:59:41.622Z,17.15
2018-02-03T11:02:09.223Z,17.17
2018-02-03T11:04:36.802Z,17.17
2018-02-03T11:07:04.378Z,17.14
2018-02-03T11:09:33.946Z,17.10
2018-02-03T11:12:01.631Z,17.05
2018-02-03T11:14:29.204Z,17.02
2018-02-03T11:16:56.738Z,16.95
2018-02-03T11:19:24.394Z,16.88
2018-02-03T11:21:51.936Z,16.82
2018-02-03T11:24:19.529Z,16.79
2018-02-03T11:26:47.129Z,16.74
2018-02-03T11:29:14.657Z,16.69
2018-02-03T11:31:42.303Z,16.64
2018-02-03T11:34:09.842Z,16.62
2018-02-03T11:36:37.449Z,16.60
2018-02-03T11:39:05.196Z,16.60
2018-02-03T11:41:32.791Z,16.60
2018-02-03T11:44:01.147Z,16.60
2018-02-03T11:46:28.678Z,16.59
2018-02-03T11:48:56.261Z,16.63
2018-02-03T11:51:23.808Z,16.67
2018-02-03T11:53:51.377Z,16.70
2018-02-03T11:56:19.918Z,16.71
2018-02-03T11:58:47.555Z,16.69
2018-02-03T12:01:15.201Z,16.67
2018-02-03T12:03:42.882Z,16.66
2018-02-03T12:06:10.429Z,16.65
2018-02-03T12:08:38.103Z,16.63
2018-02-03T12:11:05.682Z,16.62
2018-02-03T12:13:33.262Z,16.63
2018-02-03T12:16:00.807Z,16.62
2018-02-03T12:18:28.386Z,16.64
2018-02-03T12:20:55.930Z,16.65
2018-02-03T12:23:24.344Z,16.65
2018-02-03T12:25:51.953Z,16.66
2018-02-03T12:28:20.310Z,16.66
2018-02-03T12:30:49.679Z,16.67
2018-02-03T12:33:17.273Z,16.69
2018-02-03T12:35:45.589Z,16.72
2018-02-03T12:38:13.126Z,16.76
2018-02-03T12:40:40.672Z,16.78
2018-02-03T12:43:08.246Z,16.81
2018-02-03T12:45:35.843Z,16.85
2018-02-03T12:48:03.430Z,16.86
2018-02-03T12:50:31.970Z,16.89
2018-02-03T12:52:59.549Z,16.87
2018-02-03T12:55:27.119Z,16.87
2018-02-03T12:57:54.772Z,16.83
2018-02-03T13:00:22.309Z,16.81
2018-02-03T13:02:49.901Z,16.77
2018-02-03T13:05:17.491Z,16.76
2018-02-03T13:07:45.079Z,16.74
2018-02-03T13:10:13.437Z,16.72
2018-02-03T13:12:41.832Z,16.72
2018-02-03T13:15:09.410Z,16.70
2018-02-03T13:17:36.956Z,16.68
2018-02-03T13:20:04.546Z,16.67
2018-02-03T13:22:32.093Z,16.64
2018-02-03T13:25:00.629Z,16.61
2018-02-03T13:27:28.215Z,16.60
2018-02-03T13:29:55.820Z,16.57
2018-02-03T13:32:23.400Z,16.55
2018-02-03T13:34:50.943Z,16.55
2018-02-03T13:37:18.556Z,16.54
2018-02-03T13:39:46.130Z,16.52
2018-02-03T13:42:13.671Z,16.50
2018-02-03T13:44:41.250Z,16.47
2018-02-03T13:47:08.814Z,16.43
2018-02-03T13:49:36.351Z,16.40
2018-02-03T13:52:03.929Z,16.38
2018-02-03T13:54:31.596Z,16.36
2018-02-03T13:56:59.142Z,16.34
2018-02-03T13:59:26.721Z,16.32
2018-02-03T14:01:54.263Z,16.31
2018-02-03T14:04:21.845Z,16.31
2018-02-03T14:06:50.082Z,16.31
2018-02-03T14:09:18.526Z,16.32
2018-02-03T14:11:46.108Z,16.31
2018-02-03T14:14:13.647Z,16.32
2018-02-03T14:16:41.525Z,16.32
2018-02-03T14:19:09.066Z,16.32
2018-02-03T14:21:36.594Z,16.33
2018-02-03T14:24:10.790Z,16.33
2018-02-03T14:26:38.320Z,16.33
2018-02-03T14:29:05.902Z,16.32
2018-02-03T14:31:33.551Z,16.31
2018-02-03T14:34:01.688Z,16.28
2018-02-03T14:36:29.339Z,16.26
2018-02-03T14:38:56.866Z,16.23
2018-02-03T14:41:24.487Z,16.21
2018-02-03T14:43:52.087Z,16.19
2018-02-03T14:46:19.622Z,16.16
2018-02-03T14:48:47.177Z,16.14
2018-02-03T14:51:15.689Z,16.11
2018-02-03T14:53:43.830Z,16.09
2018-02-03T14:56:11.411Z,16.06
2018-02-03T14:58:39.071Z,16.05
2018-02-03T15:01:06.691Z,16.03
2018-02-03T15:03:34.217Z,16.00
2018-02-03T15:06:01.790Z,15.98
2018-02-03T15:08:29.746Z,15.95
2018-02-03T15:10:57.330Z,15.93
2018-02-03T15:13:25.626Z,15.93
2018-02-03T15:15:53.222Z,15.92
2018-02-03T15:18:22.026Z,15.91
2018-02-03T15:20:49.910Z,15.89
2018-02-03T15:23:17.443Z,15.87
2018-02-03T15:25:45.022Z,15.87
2018-02-03T15:28:13.590Z,15.85
2018-02-03T15:30:42.026Z,15.84
2018-02-03T15:33:09.628Z,15.82
2018-02-03T15:35:37.181Z,15.81
2018-02-03T15:38:04.878Z,15.80
2018-02-03T15:40:32.427Z,15.79
2018-02-03T15:43:00.087Z,15.78
2018-02-03T15:45:27.627Z,15.77
2018-02-03T15:47:56.003Z,15.78
2018-02-03T15:50:24.227Z,15.79
2018-02-03T15:52:51.786Z,15.82
2018-02-03T15:55:19.773Z,15.82
2018-02-03T15:57:47.424Z,15.82
2018-02-03T16:00:15.767Z,15.82
2018-02-03T16:02:43.303Z,15.83
2018-02-03T16:05:10.991Z,15.84
2018-02-03T16:07:39.163Z,15.85
2018-02-03T16:10:08.414Z,15.87
2018-02-03T16:12:36.859Z,15.88
2018-02-03T16:15:04.399Z,15.88
2018-02-03T16:17:32.052Z,15.87
2018-02-03T16:19:59.839Z,15.87
2018-02-03T16:22:27.439Z,15.87
2018-02-03T16:24:54.978Z,15.88
2018-02-03T16:27:23.409Z,15.86
2018-02-03T16:29:50.991Z,15.88
2018-02-03T16:32:19.521Z,15.89
2018-02-03T16:34:47.680Z,15.89
2018-02-03T16:37:15.818Z,15.88
2018-02-03T16:39:44.175Z,15.89
2018-02-03T16:42:11.822Z,15.89
2018-02-03T16:44:40.332Z,15.91
2018-02-03T16:47:07.997Z,15.92
2018-02-03T16:49:36.716Z,15.93
2018-02-03T16:52:04.338Z,15.94
2018-02-03T16:54:32.491Z,15.92
2018-02-03T16:57:00.321Z,15.93
2018-02-03T16:59:29.630Z,15.94
2018-02-03T17:01:58.585Z,15.94
2018-02-03T17:04:26.495Z,15.93
2018-02-03T17:06:55.388Z,15.94
2018-02-03T17:09:23.544Z,15.93
2018-02-03T17:11:51.930Z,15.95
2018-02-03T17:14:19.498Z,15.95
2018-02-03T17:16:47.536Z,15.95
2018-02-03T17:19:15.110Z,15.96
2018-02-03T17:21:44.555Z,15.97
2018-02-03T17:24:13.105Z,15.97
2018-02-03T17:26:40.860Z,15.96
2018-02-03T17:29:08.685Z,15.98
2018-02-03T17:31:36.209Z,15.97
2018-02-03T17:34:03.791Z,15.98
2018-02-03T17:36:37.337Z,16.20
2018-02-03T17:39:06.524Z,16.44
2018-02-03T17:41:34.155Z,16.43
2018-02-03T17:44:02.307Z,16.50
2018-02-03T17:46:35.381Z,16.55
2018-02-03T17:49:02.968Z,16.63
2018-02-03T17:51:31.113Z,16.65
2018-02-03T17:53:59.074Z,16.71
2018-02-03T17:56:32.238Z,16.65
2018-02-03T17:58:59.774Z,16.64
2018-02-03T18:01:27.350Z,16.59
2018-02-03T18:03:55.148Z,16.61
2018-02-03T18:06:28.982Z,16.62
2018-02-03T18:08:56.786Z,16.65
2018-02-03T18:11:24.945Z,16.64
2018-02-03T18:13:52.478Z,16.64
2018-02-03T18:16:20.010Z,16.61
2018-02-03T18:18:48.245Z,16.62
2018-02-03T18:21:16.094Z,16.59
2018-02-03T18:23:43.644Z,16.59
2018-02-03T18:26:12.247Z,16.62
2018-02-03T18:28:39.826Z,16.64
2018-02-03T18:31:08.967Z,16.58
2018-02-03T18:33:37.239Z,16.54
2018-02-03T18:36:04.774Z,16.50
2018-02-03T18:38:32.628Z,16.50
2018-02-03T18:41:00.209Z,16.59
2018-02-03T18:43:27.798Z,16.55
2018-02-03T18:45:55.343Z,16.49
2018-02-03T18:48:23.594Z,16.51
2018-02-03T18:50:51.167Z,16.49
2018-02-03T18:53:19.953Z,16.38
2018-02-03T18:55:47.994Z,16.39
2018-02-03T18:58:15.555Z,16.43
2018-02-03T19:00:43.174Z,16.39
2018-02-03T19:03:10.717Z,16.33
2018-02-03T19:05:38.258Z,16.29
2018-02-03T19:08:06.591Z,16.39
2018-02-03T19:10:34.135Z,16.32
2018-02-03T19:13:01.738Z,16.36
2018-02-03T19:15:30.877Z,16.35
2018-02-03T19:17:58.852Z,16.39
2018-02-03T19:20:26.394Z,16.36
2018-02-03T19:22:53.968Z,16.36
2018-02-03T19:25:22.416Z,16.42
2018-02-03T19:27:50.299Z,16.51
2018-02-03T19:30:17.835Z,16.43
2018-02-03T19:32:45.420Z,16.45
2018-02-03T19:35:15.325Z,16.43
2018-02-03T19:37:43.911Z,16.44
2018-02-03T19:40:11.761Z,16.42
2018-02-03T19:42:40.208Z,16.42
2018-02-03T19:45:07.777Z,16.46
2018-02-03T19:47:35.313Z,16.40
2018-02-03T19:50:03.165Z,16.38
2018-02-03T19:52:33.701Z,16.38
2018-02-03T19:55:01.287Z,16.39
2018-02-03T19:57:30.087Z,16.40
2018-02-03T19:59:57.918Z,16.41
2018-02-03T20:02:26.110Z,16.40
2018-02-03T20:04:56.710Z,16.35
2018-02-03T20:07:24.237Z,16.37
2018-02-03T20:09:52.694Z,16.40
2018-02-03T20:12:20.293Z,16.35
2018-02-03T20:14:49.493Z,16.38
2018-02-03T20:17:17.225Z,16.36
2018-02-03T20:19:44.790Z,16.28
2018-02-03T20:22:12.651Z,16.36
2018-02-03T20:24:40.221Z,16.39
2018-02-03T20:27:08.504Z,16.35
2018-02-03T20:29:36.079Z,16.39
2018-02-03T20:32:04.044Z,16.37
2018-02-03T20:34:32.403Z,16.34
2018-02-03T20:36:59.975Z,16.35
2018-02-03T20:39:28.268Z,16.39
2018-02-03T20:41:57.357Z,16.37
2018-02-03T20:44:25.316Z,16.39
2018-02-03T20:46:52.846Z,16.36
2018-02-03T20:49:20.479Z,16.39
2018-02-03T20:51:50.045Z,16.36
2018-02-03T20:54:17.583Z,16.40
2018-02-03T20:56:45.118Z,16.35
2018-02-03T20:59:12.719Z,16.32
2018-02-03T21:01:40.250Z,16.37
2018-02-03T21:04:08.391Z,16.32
2018-02-03T21:06:36.450Z,16.35
2018-02-03T21:09:05.186Z,16.33
2018-02-03T21:11:32.870Z,16.34
2018-02-03T21:14:00.450Z,16.31
2018-02-03T21:16:28.827Z,16.37
2018-02-03T21:18:56.550Z,16.32
2018-02-03T21:21:25.489Z,16.33
2018-02-03T21:23:54.380Z,16.42
2018-02-03T21:26:22.231Z,16.42
2018-02-03T21:28:50.686Z,16.45
2018-02-03T21:31:19.053Z,16.47
2018-02-03T21:33:47.525Z,16.55
2018-02-03T21:36:15.108Z,16.55
2018-02-03T21:38:43.825Z,16.48
2018-02-03T21:41:11.406Z,16.50
2018-02-03T21:43:39.106Z,16.42
2018-02-03T21:46:06.921Z,16.53
2018-02-03T21:48:34.455Z,16.47
2018-02-03T21:51:02.036Z,16.55
2018-02-03T21:53:29.614Z,16.52
2018-02-03T21:55:57.182Z,16.46
2018-02-03T21:58:24.714Z,16.48
2018-02-03T22:00:52.301Z,16.44
2018-02-03T22:03:20.521Z,16.39
2018-02-03T22:05:48.856Z,16.38
2018-02-03T22:08:17.377Z,16.40
2018-02-03T22:10:45.838Z,16.47
2018-02-03T22:13:14.889Z,16.52
2018-02-03T22:15:44.063Z,16.48
2018-02-03T22:18:12.388Z,16.48
2018-02-03T22:20:41.562Z,16.44
2018-02-03T22:23:11.384Z,16.40
2018-02-03T22:25:40.326Z,16.35
2018-02-03T22:28:09.639Z,16.31
2018-02-03T22:30:38.298Z,16.33
2018-02-03T22:33:06.964Z,16.35
2018-02-03T22:35:35.656Z,16.34
2018-02-03T22:38:04.881Z,16.34
2018-02-03T22:40:33.831Z,16.27
2018-02-03T22:43:02.943Z,16.29
2018-02-03T22:45:31.660Z,16.24
2018-02-03T22:48:00.499Z,16.22
2018-02-03T22:50:29.672Z,16.23
2018-02-03T22:52:57.984Z,16.25
2018-02-03T22:55:26.475Z,16.24
2018-02-03T22:57:55.058Z,16.26
2018-02-03T23:00:24.055Z,16.25
2018-02-03T23:02:58.379Z,16.22
2018-02-03T23:05:28.221Z,16.22
2018-02-03T23:07:56.493Z,16.21
2018-02-03T23:10:25.581Z,16.17
2018-02-03T23:12:54.037Z,16.19
2018-02-03T23:15:22.241Z,16.15
2018-02-03T23:17:50.227Z,16.11
2018-02-03T23:20:19.106Z,16.15
2018-02-03T23:22:47.740Z,16.17
2018-02-03T23:25:16.755Z,16.15
2018-02-03T23:27:45.724Z,16.13
2018-02-03T23:30:13.702Z,16.12
2018-02-03T23:32:41.770Z,16.13
2018-02-03T23:35:10.506Z,16.11
2018-02-03T23:37:38.561Z,16.11
2018-02-03T23:40:06.919Z,16.09
2018-02-03T23:42:34.977Z,16.09
2018-02-03T23:45:03.152Z,16.14
2018-02-03T23:47:31.217Z,16.13
2018-02-03T23:49:59.078Z,16.12
2018-02-03T23:52:28.022Z,16.13
2018-02-03T23:54:56.928Z,16.12
2018-02-03T23:57:24.948Z,16.09
2018-02-03T23:59:52.988Z,16.04
